This is the latest recevied weather packets stored in our database for station/object GW1542. If no packets are shown the sender has not sent any weather packets the latest 10 day(s).
| Time | Temp. | Humidity | Pressure | Rain* | Wind** | Luminosity | Snow |
|---|---|---|---|---|---|---|---|
| 1778092760 | 13.33° C | 95% | 1011.1 hPa | 17.53 mm | - | - | - |
| 1778089887 | 13.89° C | 94% | 1011.5 hPa | 17.53 mm | - | - | - |
| 1778085586 | 14.44° C | 94% | 1011.5 hPa | 14.48 mm | - | - | - |
| 1778084869 | 14.44° C | 93% | 1011.8 hPa | 14.22 mm | - | - | - |
| 1778084146 | 14.44° C | 92% | 1011.5 hPa | 13.97 mm | - | - | - |
| 1778080174 | 15° C | 89% | 1010.8 hPa | 13.46 mm | - | - | - |
| 1778079791 | 15° C | 90% | 1010.4 hPa | 13.46 mm | - | - | - |
| 1778077277 | 13.89° C | 95% | 1010.4 hPa | 13.46 mm | - | - | - |
| 1778076575 | 13.89° C | 95% | 1010.8 hPa | 13.21 mm | - | - | - |
| 1778074430 | 12.22° C | 97% | 1010.8 hPa | 12.7 mm | - | - | - |
| 1778071906 | 11.67° C | 96% | 1010.8 hPa | 11.68 mm | - | - | - |
| 1778070800 | 11.67° C | 96% | 1010.8 hPa | 10.41 mm | - | - | - |
| 1778070435 | 11.67° C | 96% | 1010.8 hPa | 9.91 mm | - | - | - |
| 1778067588 | 11.67° C | 96% | 1010.8 hPa | 6.1 mm | - | - | - |
| 1778065754 | 11.11° C | 95% | 1010.8 hPa | 5.59 mm | - | - | - |
| 1778063631 | 11.11° C | 96% | 1010.8 hPa | 3.3 mm | - | - | - |
| 1778059273 | 11.67° C | 92% | 1011.1 hPa | 0.51 mm | - | - | - |
| 1778057856 | 11.67° C | 90% | 1010.8 hPa | 0.25 mm | - | - | - |
| 1778056766 | 12.22° C | 87% | 1011.1 hPa | 0 mm | - | - | - |
| 1778056417 | 12.78° C | 83% | 1011.1 hPa | 0 mm | - | - | - |
| 1778052790 | 15.56° C | 54% | 1011.1 hPa | 0 mm | - | - | - |
| 1778052103 | 15.56° C | 53% | 1011.1 hPa | 0 mm | - | - | - |
| 1778050279 | 16.11° C | 51% | 1011.1 hPa | 0 mm | - | - | - |
| 1778048110 | 16.11° C | 51% | 1011.5 hPa | 0 mm | - | - | - |
| 1778045952 | 16.67° C | 50% | 1011.8 hPa | 0 mm | - | - | - |
* Rain since midnight (hover to see other rain measurements)
** Current wind speed in m/s (hover to see current wind gust speed)